sensor_id;sensor_type;location;lat;lon;timestamp;P1;durP1;ratioP1;P2;durP2;ratioP2
64550;SDS011;50945;44.472;-123.352;2022-09-19T00:01:25;13.68;;;8.77;;
64550;SDS011;50945;44.472;-123.352;2022-09-19T00:04:03;12.80;;;8.57;;
64550;SDS011;50945;44.472;-123.352;2022-09-19T00:06:33;15.82;;;7.80;;
64550;SDS011;50945;44.472;-123.352;2022-09-19T00:09:01;13.63;;;7.65;;
64550;SDS011;50945;44.472;-123.352;2022-09-19T00:11:29;14.88;;;7.57;;
64550;SDS011;50945;44.472;-123.352;2022-09-19T00:13:56;12.18;;;7.50;;
64550;SDS011;50945;44.472;-123.352;2022-09-19T00:18:58;11.90;;;7.60;;
64550;SDS011;50945;44.472;-123.352;2022-09-19T00:21:27;14.15;;;7.85;;
64550;SDS011;50945;44.472;-123.352;2022-09-19T00:23:55;11.52;;;7.07;;
64550;SDS011;50945;44.472;-123.352;2022-09-19T00:26:39;10.45;;;7.53;;
64550;SDS011;50945;44.472;-123.352;2022-09-19T00:29:07;12.10;;;7.35;;
64550;SDS011;50945;44.472;-123.352;2022-09-19T00:31:34;12.25;;;7.68;;
64550;SDS011;50945;44.472;-123.352;2022-09-19T00:34:01;13.18;;;9.38;;
64550;SDS011;50945;44.472;-123.352;2022-09-19T00:36:34;13.90;;;7.38;;
64550;SDS011;50945;44.472;-123.352;2022-09-19T00:39:02;16.30;;;8.38;;
64550;SDS011;50945;44.472;-123.352;2022-09-19T00:41:30;10.45;;;7.65;;
64550;SDS011;50945;44.472;-123.352;2022-09-19T00:44:00;14.90;;;8.40;;
64550;SDS011;50945;44.472;-123.352;2022-09-19T00:49:04;12.15;;;8.02;;
64550;SDS011;50945;44.472;-123.352;2022-09-19T00:51:44;12.25;;;7.72;;
64550;SDS011;50945;44.472;-123.352;2022-09-19T00:54:20;14.02;;;8.13;;
64550;SDS011;50945;44.472;-123.352;2022-09-19T00:56:52;12.98;;;7.95;;
64550;SDS011;50945;44.472;-123.352;2022-09-19T00:59:20;14.10;;;7.65;;
64550;SDS011;50945;44.472;-123.352;2022-09-19T01:01:49;14.65;;;8.07;;
64550;SDS011;50945;44.472;-123.352;2022-09-19T01:04:22;14.10;;;8.13;;
64550;SDS011;50945;44.472;-123.352;2022-09-19T01:06:58;15.25;;;8.43;;
64550;SDS011;50945;44.472;-123.352;2022-09-19T01:12:30;12.63;;;7.30;;
64550;SDS011;50945;44.472;-123.352;2022-09-19T01:17:58;13.98;;;7.78;;
64550;SDS011;50945;44.472;-123.352;2022-09-19T01:29:49;12.55;;;7.80;;
64550;SDS011;50945;44.472;-123.352;2022-09-19T01:32:28;15.40;;;8.30;;
64550;SDS011;50945;44.472;-123.352;2022-09-19T01:35:01;12.98;;;7.57;;
64550;SDS011;50945;44.472;-123.352;2022-09-19T01:37:36;13.10;;;6.68;;
64550;SDS011;50945;44.472;-123.352;2022-09-19T01:40:11;11.95;;;7.57;;
64550;SDS011;50945;44.472;-123.352;2022-09-19T01:42:57;17.05;;;7.40;;
64550;SDS011;50945;44.472;-123.352;2022-09-19T01:45:25;13.25;;;6.97;;
64550;SDS011;50945;44.472;-123.352;2022-09-19T01:56:11;12.40;;;7.18;;
64550;SDS011;50945;44.472;-123.352;2022-09-19T02:04:51;11.73;;;6.68;;
64550;SDS011;50945;44.472;-123.352;2022-09-19T02:07:23;10.98;;;6.68;;
64550;SDS011;50945;44.472;-123.352;2022-09-19T02:10:19;10.98;;;6.70;;
64550;SDS011;50945;44.472;-123.352;2022-09-19T02:12:52;9.52;;;6.80;;
64550;SDS011;50945;44.472;-123.352;2022-09-19T02:15:22;14.25;;;6.65;;
64550;SDS011;50945;44.472;-123.352;2022-09-19T02:17:56;10.27;;;6.55;;
64550;SDS011;50945;44.472;-123.352;2022-09-19T02:20:29;11.18;;;6.75;;
64550;SDS011;50945;44.472;-123.352;2022-09-19T02:23:03;12.20;;;6.63;;
64550;SDS011;50945;44.472;-123.352;2022-09-19T02:25:40;21.50;;;7.40;;
64550;SDS011;50945;44.472;-123.352;2022-09-19T02:28:09;11.93;;;7.03;;
64550;SDS011;50945;44.472;-123.352;2022-09-19T02:30:40;11.60;;;6.15;;
64550;SDS011;50945;44.472;-123.352;2022-09-19T02:33:09;19.95;;;6.70;;
64550;SDS011;50945;44.472;-123.352;2022-09-19T02:41:35;13.75;;;7.50;;
64550;SDS011;50945;44.472;-123.352;2022-09-19T02:44:17;10.85;;;6.75;;
64550;SDS011;50945;44.472;-123.352;2022-09-19T02:47:07;10.90;;;6.82;;
64550;SDS011;50945;44.472;-123.352;2022-09-19T02:52:16;14.07;;;7.43;;
64550;SDS011;50945;44.472;-123.352;2022-09-19T02:54:48;11.50;;;6.90;;
64550;SDS011;50945;44.472;-123.352;2022-09-19T02:57:19;12.70;;;7.68;;
64550;SDS011;50945;44.472;-123.352;2022-09-19T02:59:49;11.70;;;7.07;;
64550;SDS011;50945;44.472;-123.352;2022-09-19T03:02:28;14.18;;;7.65;;
64550;SDS011;50945;44.472;-123.352;2022-09-19T03:05:02;11.82;;;7.13;;
64550;SDS011;50945;44.472;-123.352;2022-09-19T03:08:17;12.27;;;6.25;;
64550;SDS011;50945;44.472;-123.352;2022-09-19T03:10:27;12.30;;;7.22;;
64550;SDS011;50945;44.472;-123.352;2022-09-19T03:13:00;12.35;;;7.25;;
64550;SDS011;50945;44.472;-123.352;2022-09-19T03:18:03;13.60;;;7.55;;
64550;SDS011;50945;44.472;-123.352;2022-09-19T03:20:38;16.08;;;7.38;;
64550;SDS011;50945;44.472;-123.352;2022-09-19T03:23:10;12.02;;;7.00;;
64550;SDS011;50945;44.472;-123.352;2022-09-19T03:25:40;12.23;;;7.07;;
64550;SDS011;50945;44.472;-123.352;2022-09-19T03:28:07;14.43;;;7.07;;
64550;SDS011;50945;44.472;-123.352;2022-09-19T03:30:34;16.75;;;8.35;;
64550;SDS011;50945;44.472;-123.352;2022-09-19T03:33:00;11.90;;;7.28;;
64550;SDS011;50945;44.472;-123.352;2022-09-19T03:35:27;14.15;;;7.85;;
64550;SDS011;50945;44.472;-123.352;2022-09-19T03:40:19;12.02;;;6.85;;
64550;SDS011;50945;44.472;-123.352;2022-09-19T03:42:47;15.32;;;6.97;;
64550;SDS011;50945;44.472;-123.352;2022-09-19T03:45:18;11.50;;;6.82;;
64550;SDS011;50945;44.472;-123.352;2022-09-19T03:47:44;11.23;;;7.57;;
64550;SDS011;50945;44.472;-123.352;2022-09-19T03:50:12;14.48;;;7.60;;
64550;SDS011;50945;44.472;-123.352;2022-09-19T03:55:04;14.85;;;7.03;;
64550;SDS011;50945;44.472;-123.352;2022-09-19T03:57:31;15.50;;;8.10;;
64550;SDS011;50945;44.472;-123.352;2022-09-19T03:59:57;12.38;;;7.00;;
64550;SDS011;50945;44.472;-123.352;2022-09-19T04:02:25;12.85;;;6.75;;
64550;SDS011;50945;44.472;-123.352;2022-09-19T04:04:51;11.48;;;7.22;;
64550;SDS011;50945;44.472;-123.352;2022-09-19T04:07:19;12.07;;;7.20;;
64550;SDS011;50945;44.472;-123.352;2022-09-19T04:09:45;11.05;;;7.05;;
64550;SDS011;50945;44.472;-123.352;2022-09-19T04:14:38;11.55;;;6.78;;
64550;SDS011;50945;44.472;-123.352;2022-09-19T04:19:35;11.55;;;6.30;;
64550;SDS011;50945;44.472;-123.352;2022-09-19T04:22:01;16.50;;;7.97;;
64550;SDS011;50945;44.472;-123.352;2022-09-19T04:24:27;11.95;;;6.82;;
64550;SDS011;50945;44.472;-123.352;2022-09-19T04:26:54;12.85;;;7.47;;
64550;SDS011;50945;44.472;-123.352;2022-09-19T04:29:25;11.63;;;7.40;;
64550;SDS011;50945;44.472;-123.352;2022-09-19T04:31:53;12.48;;;6.70;;
64550;SDS011;50945;44.472;-123.352;2022-09-19T04:34:20;14.93;;;7.18;;
64550;SDS011;50945;44.472;-123.352;2022-09-19T04:36:46;13.05;;;6.95;;
64550;SDS011;50945;44.472;-123.352;2022-09-19T04:39:14;12.88;;;6.95;;
64550;SDS011;50945;44.472;-123.352;2022-09-19T04:41:40;12.05;;;7.45;;
64550;SDS011;50945;44.472;-123.352;2022-09-19T04:44:07;11.15;;;7.05;;
64550;SDS011;50945;44.472;-123.352;2022-09-19T04:46:35;11.07;;;7.13;;
64550;SDS011;50945;44.472;-123.352;2022-09-19T04:49:01;10.38;;;7.63;;
64550;SDS011;50945;44.472;-123.352;2022-09-19T04:51:30;13.20;;;6.63;;
64550;SDS011;50945;44.472;-123.352;2022-09-19T04:56:22;13.30;;;7.38;;
64550;SDS011;50945;44.472;-123.352;2022-09-19T04:58:51;10.55;;;6.45;;
64550;SDS011;50945;44.472;-123.352;2022-09-19T05:01:18;15.65;;;7.15;;
64550;SDS011;50945;44.472;-123.352;2022-09-19T05:03:44;11.90;;;6.95;;
64550;SDS011;50945;44.472;-123.352;2022-09-19T05:06:11;12.75;;;7.20;;
64550;SDS011;50945;44.472;-123.352;2022-09-19T05:08:38;9.25;;;6.07;;
64550;SDS011;50945;44.472;-123.352;2022-09-19T05:11:06;13.40;;;7.38;;
64550;SDS011;50945;44.472;-123.352;2022-09-19T05:13:36;11.68;;;6.53;;
64550;SDS011;50945;44.472;-123.352;2022-09-19T05:16:06;12.60;;;7.40;;
64550;SDS011;50945;44.472;-123.352;2022-09-19T05:18:33;12.32;;;6.97;;
64550;SDS011;50945;44.472;-123.352;2022-09-19T05:21:04;10.95;;;6.63;;
64550;SDS011;50945;44.472;-123.352;2022-09-19T05:23:32;11.90;;;6.57;;
64550;SDS011;50945;44.472;-123.352;2022-09-19T05:26:03;15.80;;;6.75;;
64550;SDS011;50945;44.472;-123.352;2022-09-19T05:28:31;9.40;;;6.55;;
64550;SDS011;50945;44.472;-123.352;2022-09-19T05:30:57;10.18;;;6.65;;
64550;SDS011;50945;44.472;-123.352;2022-09-19T05:33:29;9.40;;;6.13;;
64550;SDS011;50945;44.472;-123.352;2022-09-19T05:35:58;11.25;;;6.55;;
64550;SDS011;50945;44.472;-123.352;2022-09-19T05:38:30;10.32;;;6.28;;
64550;SDS011;50945;44.472;-123.352;2022-09-19T05:40:59;12.95;;;6.97;;
64550;SDS011;50945;44.472;-123.352;2022-09-19T05:43:27;12.48;;;6.38;;
64550;SDS011;50945;44.472;-123.352;2022-09-19T05:48:21;14.07;;;6.75;;
64550;SDS011;50945;44.472;-123.352;2022-09-19T05:50:48;13.77;;;6.20;;
64550;SDS011;50945;44.472;-123.352;2022-09-19T05:53:16;11.07;;;6.40;;
64550;SDS011;50945;44.472;-123.352;2022-09-19T05:56:02;11.98;;;7.20;;
64550;SDS011;50945;44.472;-123.352;2022-09-19T05:58:30;11.57;;;5.97;;
64550;SDS011;50945;44.472;-123.352;2022-09-19T06:01:01;11.70;;;6.20;;
64550;SDS011;50945;44.472;-123.352;2022-09-19T06:03:31;13.82;;;6.57;;
64550;SDS011;50945;44.472;-123.352;2022-09-19T06:05:59;11.48;;;6.80;;
64550;SDS011;50945;44.472;-123.352;2022-09-19T06:08:26;12.85;;;7.00;;
64550;SDS011;50945;44.472;-123.352;2022-09-19T06:10:53;10.63;;;6.53;;
64550;SDS011;50945;44.472;-123.352;2022-09-19T06:13:20;12.48;;;6.88;;
64550;SDS011;50945;44.472;-123.352;2022-09-19T06:15:48;10.75;;;6.10;;
64550;SDS011;50945;44.472;-123.352;2022-09-19T06:18:15;12.48;;;6.03;;
64550;SDS011;50945;44.472;-123.352;2022-09-19T06:20:42;13.93;;;6.35;;
64550;SDS011;50945;44.472;-123.352;2022-09-19T06:23:10;14.65;;;6.07;;
64550;SDS011;50945;44.472;-123.352;2022-09-19T06:25:37;10.38;;;5.85;;
64550;SDS011;50945;44.472;-123.352;2022-09-19T06:28:06;12.18;;;6.40;;
64550;SDS011;50945;44.472;-123.352;2022-09-19T06:30:36;11.95;;;6.20;;
64550;SDS011;50945;44.472;-123.352;2022-09-19T06:33:04;11.07;;;6.13;;
64550;SDS011;50945;44.472;-123.352;2022-09-19T06:35:32;11.40;;;6.13;;
64550;SDS011;50945;44.472;-123.352;2022-09-19T06:37:59;11.40;;;6.45;;
64550;SDS011;50945;44.472;-123.352;2022-09-19T06:40:27;9.75;;;5.68;;
64550;SDS011;50945;44.472;-123.352;2022-09-19T06:42:58;12.27;;;6.40;;
64550;SDS011;50945;44.472;-123.352;2022-09-19T06:45:32;10.20;;;6.20;;
64550;SDS011;50945;44.472;-123.352;2022-09-19T06:48:03;10.40;;;5.97;;
64550;SDS011;50945;44.472;-123.352;2022-09-19T06:50:30;12.07;;;5.90;;
64550;SDS011;50945;44.472;-123.352;2022-09-19T06:52:57;11.82;;;6.00;;
64550;SDS011;50945;44.472;-123.352;2022-09-19T06:57:57;11.75;;;6.85;;
64550;SDS011;50945;44.472;-123.352;2022-09-19T07:00:27;10.27;;;6.13;;
64550;SDS011;50945;44.472;-123.352;2022-09-19T07:03:13;8.85;;;5.50;;
64550;SDS011;50945;44.472;-123.352;2022-09-19T07:05:42;12.60;;;5.90;;
64550;SDS011;50945;44.472;-123.352;2022-09-19T07:08:10;11.98;;;5.78;;
64550;SDS011;50945;44.472;-123.352;2022-09-19T07:10:38;10.85;;;5.35;;
64550;SDS011;50945;44.472;-123.352;2022-09-19T07:13:05;8.75;;;5.38;;
64550;SDS011;50945;44.472;-123.352;2022-09-19T07:15:33;10.63;;;5.22;;
64550;SDS011;50945;44.472;-123.352;2022-09-19T07:18:01;11.23;;;6.07;;
64550;SDS011;50945;44.472;-123.352;2022-09-19T07:20:28;11.90;;;5.40;;
64550;SDS011;50945;44.472;-123.352;2022-09-19T07:23:04;8.73;;;5.60;;
64550;SDS011;50945;44.472;-123.352;2022-09-19T07:25:34;9.40;;;5.57;;
64550;SDS011;50945;44.472;-123.352;2022-09-19T07:28:04;11.63;;;6.05;;
64550;SDS011;50945;44.472;-123.352;2022-09-19T07:30:34;11.13;;;6.10;;
64550;SDS011;50945;44.472;-123.352;2022-09-19T07:33:02;10.70;;;5.88;;
64550;SDS011;50945;44.472;-123.352;2022-09-19T07:35:33;8.32;;;4.95;;
64550;SDS011;50945;44.472;-123.352;2022-09-19T07:38:00;10.30;;;6.13;;
64550;SDS011;50945;44.472;-123.352;2022-09-19T07:40:28;8.43;;;5.47;;
64550;SDS011;50945;44.472;-123.352;2022-09-19T07:43:00;10.63;;;6.13;;
64550;SDS011;50945;44.472;-123.352;2022-09-19T07:45:37;16.38;;;5.80;;
64550;SDS011;50945;44.472;-123.352;2022-09-19T07:48:03;10.52;;;5.55;;
64550;SDS011;50945;44.472;-123.352;2022-09-19T07:50:30;7.47;;;4.70;;
64550;SDS011;50945;44.472;-123.352;2022-09-19T07:53:01;9.60;;;5.10;;
64550;SDS011;50945;44.472;-123.352;2022-09-19T07:55:32;8.38;;;5.03;;
64550;SDS011;50945;44.472;-123.352;2022-09-19T07:58:01;9.93;;;5.30;;
64550;SDS011;50945;44.472;-123.352;2022-09-19T08:00:29;8.35;;;4.72;;
64550;SDS011;50945;44.472;-123.352;2022-09-19T08:02:59;7.95;;;5.07;;
64550;SDS011;50945;44.472;-123.352;2022-09-19T08:05:28;11.43;;;4.90;;
64550;SDS011;50945;44.472;-123.352;2022-09-19T08:07:59;7.97;;;5.60;;
64550;SDS011;50945;44.472;-123.352;2022-09-19T08:10:26;8.00;;;4.85;;
64550;SDS011;50945;44.472;-123.352;2022-09-19T08:12:52;9.73;;;5.97;;
64550;SDS011;50945;44.472;-123.352;2022-09-19T08:15:23;9.80;;;5.18;;
64550;SDS011;50945;44.472;-123.352;2022-09-19T08:17:57;7.25;;;4.95;;
64550;SDS011;50945;44.472;-123.352;2022-09-19T08:20:25;10.55;;;5.32;;
64550;SDS011;50945;44.472;-123.352;2022-09-19T08:23:04;10.15;;;5.82;;
64550;SDS011;50945;44.472;-123.352;2022-09-19T08:25:32;9.05;;;6.03;;
64550;SDS011;50945;44.472;-123.352;2022-09-19T08:28:01;9.15;;;5.25;;
64550;SDS011;50945;44.472;-123.352;2022-09-19T08:30:29;9.52;;;4.80;;
64550;SDS011;50945;44.472;-123.352;2022-09-19T08:32:56;7.70;;;4.97;;
64550;SDS011;50945;44.472;-123.352;2022-09-19T08:35:24;7.10;;;5.13;;
64550;SDS011;50945;44.472;-123.352;2022-09-19T08:37:53;8.68;;;5.22;;
64550;SDS011;50945;44.472;-123.352;2022-09-19T08:40:23;11.30;;;5.68;;
64550;SDS011;50945;44.472;-123.352;2022-09-19T08:57:34;10.73;;;5.05;;
64550;SDS011;50945;44.472;-123.352;2022-09-19T09:00:04;9.40;;;5.30;;
64550;SDS011;50945;44.472;-123.352;2022-09-19T09:05:20;9.45;;;5.05;;
64550;SDS011;50945;44.472;-123.352;2022-09-19T09:11:01;9.88;;;5.78;;
64550;SDS011;50945;44.472;-123.352;2022-09-19T09:16:39;12.50;;;5.45;;
64550;SDS011;50945;44.472;-123.352;2022-09-19T09:30:42;10.70;;;5.80;;
64550;SDS011;50945;44.472;-123.352;2022-09-19T09:36:03;9.10;;;5.45;;
64550;SDS011;50945;44.472;-123.352;2022-09-19T09:38:36;10.77;;;5.38;;
64550;SDS011;50945;44.472;-123.352;2022-09-19T09:49:14;10.63;;;5.43;;
64550;SDS011;50945;44.472;-123.352;2022-09-19T10:00:11;8.25;;;5.30;;
64550;SDS011;50945;44.472;-123.352;2022-09-19T10:06:16;8.25;;;5.25;;
64550;SDS011;50945;44.472;-123.352;2022-09-19T10:11:45;7.28;;;4.68;;
64550;SDS011;50945;44.472;-123.352;2022-09-19T10:14:25;7.30;;;5.00;;
64550;SDS011;50945;44.472;-123.352;2022-09-19T10:16:58;6.22;;;4.28;;
64550;SDS011;50945;44.472;-123.352;2022-09-19T10:19:46;9.80;;;5.15;;
64550;SDS011;50945;44.472;-123.352;2022-09-19T10:22:18;8.30;;;4.28;;
64550;SDS011;50945;44.472;-123.352;2022-09-19T10:30:00;5.47;;;4.65;;
64550;SDS011;50945;44.472;-123.352;2022-09-19T10:32:28;6.82;;;4.45;;
64550;SDS011;50945;44.472;-123.352;2022-09-19T10:40:54;6.25;;;3.92;;
64550;SDS011;50945;44.472;-123.352;2022-09-19T10:43:26;5.90;;;4.45;;
64550;SDS011;50945;44.472;-123.352;2022-09-19T10:45:59;8.68;;;4.55;;
64550;SDS011;50945;44.472;-123.352;2022-09-19T10:48:32;6.15;;;4.57;;
64550;SDS011;50945;44.472;-123.352;2022-09-19T10:51:04;5.53;;;4.00;;
64550;SDS011;50945;44.472;-123.352;2022-09-19T10:53:38;7.38;;;4.43;;
64550;SDS011;50945;44.472;-123.352;2022-09-19T10:56:33;6.75;;;4.50;;
64550;SDS011;50945;44.472;-123.352;2022-09-19T10:59:04;8.20;;;4.40;;
64550;SDS011;50945;44.472;-123.352;2022-09-19T11:05:22;6.38;;;4.07;;
64550;SDS011;50945;44.472;-123.352;2022-09-19T11:07:49;7.88;;;4.20;;
64550;SDS011;50945;44.472;-123.352;2022-09-19T11:10:30;7.47;;;4.07;;
64550;SDS011;50945;44.472;-123.352;2022-09-19T11:13:11;9.30;;;4.82;;
64550;SDS011;50945;44.472;-123.352;2022-09-19T11:21:37;7.80;;;4.25;;
64550;SDS011;50945;44.472;-123.352;2022-09-19T11:30:22;8.30;;;5.60;;
64550;SDS011;50945;44.472;-123.352;2022-09-19T11:47:23;8.98;;;4.75;;
64550;SDS011;50945;44.472;-123.352;2022-09-19T11:58:59;9.80;;;5.20;;
64550;SDS011;50945;44.472;-123.352;2022-09-19T12:02:02;9.05;;;5.53;;
64550;SDS011;50945;44.472;-123.352;2022-09-19T12:07:50;7.68;;;4.30;;
64550;SDS011;50945;44.472;-123.352;2022-09-19T12:10:49;7.47;;;4.60;;
64550;SDS011;50945;44.472;-123.352;2022-09-19T12:13:33;9.70;;;4.53;;
64550;SDS011;50945;44.472;-123.352;2022-09-19T12:16:06;7.70;;;4.60;;
64550;SDS011;50945;44.472;-123.352;2022-09-19T12:18:43;9.35;;;4.93;;
64550;SDS011;50945;44.472;-123.352;2022-09-19T12:21:19;9.65;;;4.93;;
64550;SDS011;50945;44.472;-123.352;2022-09-19T12:23:57;10.00;;;5.47;;
64550;SDS011;50945;44.472;-123.352;2022-09-19T12:29:39;8.98;;;5.07;;
64550;SDS011;50945;44.472;-123.352;2022-09-19T12:32:33;11.25;;;5.45;;
64550;SDS011;50945;44.472;-123.352;2022-09-19T12:48:54;7.55;;;4.90;;
64550;SDS011;50945;44.472;-123.352;2022-09-19T12:51:41;7.65;;;3.83;;
64550;SDS011;50945;44.472;-123.352;2022-09-19T12:54:23;6.35;;;3.83;;
64550;SDS011;50945;44.472;-123.352;2022-09-19T12:59:41;5.75;;;4.13;;
64550;SDS011;50945;44.472;-123.352;2022-09-19T13:02:14;6.45;;;4.00;;
64550;SDS011;50945;44.472;-123.352;2022-09-19T13:07:25;7.63;;;3.80;;
64550;SDS011;50945;44.472;-123.352;2022-09-19T13:12:47;5.25;;;3.92;;
64550;SDS011;50945;44.472;-123.352;2022-09-19T13:15:18;6.25;;;4.18;;
64550;SDS011;50945;44.472;-123.352;2022-09-19T13:17:52;6.35;;;3.75;;
64550;SDS011;50945;44.472;-123.352;2022-09-19T13:20:40;6.75;;;3.88;;
64550;SDS011;50945;44.472;-123.352;2022-09-19T13:23:27;5.82;;;3.90;;
64550;SDS011;50945;44.472;-123.352;2022-09-19T13:27:01;8.48;;;4.30;;
64550;SDS011;50945;44.472;-123.352;2022-09-19T13:29:45;7.70;;;4.30;;
64550;SDS011;50945;44.472;-123.352;2022-09-19T13:42:29;9.32;;;4.97;;
64550;SDS011;50945;44.472;-123.352;2022-09-19T13:48:05;9.30;;;5.38;;
64550;SDS011;50945;44.472;-123.352;2022-09-19T13:50:49;6.93;;;4.40;;
64550;SDS011;50945;44.472;-123.352;2022-09-19T13:53:44;7.95;;;4.28;;
64550;SDS011;50945;44.472;-123.352;2022-09-19T13:56:22;8.25;;;4.75;;
64550;SDS011;50945;44.472;-123.352;2022-09-19T14:01:38;6.20;;;4.57;;
64550;SDS011;50945;44.472;-123.352;2022-09-19T14:04:13;8.55;;;4.28;;
64550;SDS011;50945;44.472;-123.352;2022-09-19T14:07:01;8.02;;;4.28;;
64550;SDS011;50945;44.472;-123.352;2022-09-19T14:12:25;10.18;;;4.55;;
64550;SDS011;50945;44.472;-123.352;2022-09-19T14:15:03;11.13;;;4.72;;
64550;SDS011;50945;44.472;-123.352;2022-09-19T14:23:13;8.32;;;4.88;;
64550;SDS011;50945;44.472;-123.352;2022-09-19T14:25:57;6.82;;;4.45;;
64550;SDS011;50945;44.472;-123.352;2022-09-19T14:28:31;8.48;;;4.45;;
64550;SDS011;50945;44.472;-123.352;2022-09-19T14:41:45;5.30;;;3.95;;
64550;SDS011;50945;44.472;-123.352;2022-09-19T14:47:32;7.38;;;4.38;;
64550;SDS011;50945;44.472;-123.352;2022-09-19T14:50:11;11.23;;;4.82;;
64550;SDS011;50945;44.472;-123.352;2022-09-19T14:52:48;7.72;;;4.60;;
64550;SDS011;50945;44.472;-123.352;2022-09-19T14:55:29;5.93;;;4.20;;
64550;SDS011;50945;44.472;-123.352;2022-09-19T14:58:40;8.32;;;3.95;;
64550;SDS011;50945;44.472;-123.352;2022-09-19T15:03:55;9.18;;;4.25;;
64550;SDS011;50945;44.472;-123.352;2022-09-19T15:08:57;7.25;;;4.32;;
64550;SDS011;50945;44.472;-123.352;2022-09-19T15:11:24;8.88;;;4.57;;
64550;SDS011;50945;44.472;-123.352;2022-09-19T15:13:51;7.07;;;4.38;;
64550;SDS011;50945;44.472;-123.352;2022-09-19T15:16:20;7.63;;;4.93;;
64550;SDS011;50945;44.472;-123.352;2022-09-19T15:18:49;6.50;;;3.95;;
64550;SDS011;50945;44.472;-123.352;2022-09-19T15:21:20;6.90;;;4.32;;
64550;SDS011;50945;44.472;-123.352;2022-09-19T15:23:55;5.70;;;3.80;;
64550;SDS011;50945;44.472;-123.352;2022-09-19T15:26:25;8.88;;;4.40;;
64550;SDS011;50945;44.472;-123.352;2022-09-19T15:28:55;6.57;;;4.03;;
64550;SDS011;50945;44.472;-123.352;2022-09-19T15:31:23;8.90;;;4.30;;
64550;SDS011;50945;44.472;-123.352;2022-09-19T15:34:01;7.93;;;4.88;;
64550;SDS011;50945;44.472;-123.352;2022-09-19T15:36:34;9.63;;;4.70;;
64550;SDS011;50945;44.472;-123.352;2022-09-19T15:39:02;6.97;;;5.03;;
64550;SDS011;50945;44.472;-123.352;2022-09-19T15:41:31;8.30;;;4.57;;
64550;SDS011;50945;44.472;-123.352;2022-09-19T15:44:00;22.88;;;5.68;;
64550;SDS011;50945;44.472;-123.352;2022-09-19T15:46:35;22.50;;;5.95;;
64550;SDS011;50945;44.472;-123.352;2022-09-19T15:49:06;36.80;;;6.38;;
64550;SDS011;50945;44.472;-123.352;2022-09-19T15:51:57;7.35;;;4.22;;
64550;SDS011;50945;44.472;-123.352;2022-09-19T15:54:27;9.10;;;5.13;;
64550;SDS011;50945;44.472;-123.352;2022-09-19T15:57:00;11.65;;;5.30;;
64550;SDS011;50945;44.472;-123.352;2022-09-19T15:59:37;9.65;;;5.28;;
64550;SDS011;50945;44.472;-123.352;2022-09-19T16:02:16;27.27;;;6.50;;
64550;SDS011;50945;44.472;-123.352;2022-09-19T16:04:59;72.65;;;8.48;;
64550;SDS011;50945;44.472;-123.352;2022-09-19T16:07:33;27.63;;;5.80;;
64550;SDS011;50945;44.472;-123.352;2022-09-19T16:10:22;41.53;;;6.50;;
64550;SDS011;50945;44.472;-123.352;2022-09-19T16:12:52;48.35;;;6.82;;
64550;SDS011;50945;44.472;-123.352;2022-09-19T16:15:21;17.77;;;5.72;;
64550;SDS011;50945;44.472;-123.352;2022-09-19T16:18:15;8.73;;;4.75;;
64550;SDS011;50945;44.472;-123.352;2022-09-19T16:20:50;14.20;;;6.57;;
64550;SDS011;50945;44.472;-123.352;2022-09-19T16:23:21;98.10;;;10.68;;
64550;SDS011;50945;44.472;-123.352;2022-09-19T16:25:50;44.22;;;7.13;;
64550;SDS011;50945;44.472;-123.352;2022-09-19T16:31:07;23.08;;;5.78;;
64550;SDS011;50945;44.472;-123.352;2022-09-19T16:33:51;60.28;;;8.90;;
64550;SDS011;50945;44.472;-123.352;2022-09-19T16:36:18;26.20;;;7.93;;
64550;SDS011;50945;44.472;-123.352;2022-09-19T16:41:25;35.58;;;7.22;;
64550;SDS011;50945;44.472;-123.352;2022-09-19T16:43:58;31.20;;;7.15;;
64550;SDS011;50945;44.472;-123.352;2022-09-19T16:46:26;23.77;;;6.20;;
64550;SDS011;50945;44.472;-123.352;2022-09-19T16:48:53;31.48;;;6.40;;
64550;SDS011;50945;44.472;-123.352;2022-09-19T16:51:19;47.92;;;7.85;;
64550;SDS011;50945;44.472;-123.352;2022-09-19T16:53:53;26.08;;;6.70;;
64550;SDS011;50945;44.472;-123.352;2022-09-19T16:56:21;31.77;;;6.35;;
64550;SDS011;50945;44.472;-123.352;2022-09-19T16:58:47;46.38;;;8.40;;
64550;SDS011;50945;44.472;-123.352;2022-09-19T17:01:13;47.83;;;8.10;;
64550;SDS011;50945;44.472;-123.352;2022-09-19T17:03:40;45.40;;;7.50;;
64550;SDS011;50945;44.472;-123.352;2022-09-19T17:06:10;21.83;;;5.78;;
64550;SDS011;50945;44.472;-123.352;2022-09-19T17:08:39;53.95;;;8.00;;
64550;SDS011;50945;44.472;-123.352;2022-09-19T17:11:10;34.80;;;6.57;;
64550;SDS011;50945;44.472;-123.352;2022-09-19T17:13:37;56.47;;;9.10;;
64550;SDS011;50945;44.472;-123.352;2022-09-19T17:16:04;7.93;;;5.03;;
64550;SDS011;50945;44.472;-123.352;2022-09-19T17:18:31;9.32;;;4.72;;
64550;SDS011;50945;44.472;-123.352;2022-09-19T17:21:00;8.63;;;4.65;;
64550;SDS011;50945;44.472;-123.352;2022-09-19T17:23:28;13.55;;;6.05;;
64550;SDS011;50945;44.472;-123.352;2022-09-19T17:25:56;13.43;;;5.57;;
64550;SDS011;50945;44.472;-123.352;2022-09-19T17:28:23;28.83;;;7.57;;
64550;SDS011;50945;44.472;-123.352;2022-09-19T17:30:51;16.85;;;5.50;;
64550;SDS011;50945;44.472;-123.352;2022-09-19T17:33:19;59.55;;;8.50;;
64550;SDS011;50945;44.472;-123.352;2022-09-19T17:35:47;66.43;;;9.05;;
64550;SDS011;50945;44.472;-123.352;2022-09-19T17:38:15;11.93;;;5.20;;
64550;SDS011;50945;44.472;-123.352;2022-09-19T17:43:13;51.15;;;7.88;;
64550;SDS011;50945;44.472;-123.352;2022-09-19T17:45:45;63.50;;;9.48;;
64550;SDS011;50945;44.472;-123.352;2022-09-19T17:48:24;17.45;;;5.97;;
64550;SDS011;50945;44.472;-123.352;2022-09-19T17:50:51;16.13;;;6.57;;
64550;SDS011;50945;44.472;-123.352;2022-09-19T17:53:18;23.63;;;5.88;;
64550;SDS011;50945;44.472;-123.352;2022-09-19T17:55:45;23.25;;;6.07;;
64550;SDS011;50945;44.472;-123.352;2022-09-19T17:58:11;9.88;;;5.30;;
64550;SDS011;50945;44.472;-123.352;2022-09-19T18:00:37;37.80;;;7.50;;
64550;SDS011;50945;44.472;-123.352;2022-09-19T18:03:05;90.53;;;11.82;;
64550;SDS011;50945;44.472;-123.352;2022-09-19T18:05:53;10.57;;;5.32;;
64550;SDS011;50945;44.472;-123.352;2022-09-19T18:08:20;27.10;;;6.78;;
64550;SDS011;50945;44.472;-123.352;2022-09-19T18:13:12;35.25;;;6.88;;
64550;SDS011;50945;44.472;-123.352;2022-09-19T18:18:04;27.40;;;7.10;;
64550;SDS011;50945;44.472;-123.352;2022-09-19T18:20:31;32.60;;;7.95;;
64550;SDS011;50945;44.472;-123.352;2022-09-19T18:22:57;18.33;;;5.47;;
64550;SDS011;50945;44.472;-123.352;2022-09-19T18:25:23;10.70;;;5.50;;
64550;SDS011;50945;44.472;-123.352;2022-09-19T18:27:52;13.57;;;6.00;;
64550;SDS011;50945;44.472;-123.352;2022-09-19T18:30:19;7.90;;;5.45;;
64550;SDS011;50945;44.472;-123.352;2022-09-19T18:32:47;38.25;;;7.45;;
64550;SDS011;50945;44.472;-123.352;2022-09-19T18:35:15;13.30;;;5.32;;
64550;SDS011;50945;44.472;-123.352;2022-09-19T18:37:43;14.70;;;5.68;;
64550;SDS011;50945;44.472;-123.352;2022-09-19T18:40:11;30.00;;;6.10;;
64550;SDS011;50945;44.472;-123.352;2022-09-19T18:42:40;19.80;;;5.20;;
64550;SDS011;50945;44.472;-123.352;2022-09-19T18:45:07;12.88;;;5.10;;
64550;SDS011;50945;44.472;-123.352;2022-09-19T18:47:35;16.42;;;5.70;;